Archival Weather

Heathrow

London, United Kingdom (EGLL)

Report from: Thursday, September 21, 2023 11:20 PM BST
Current time: Sunday, July 14, 2024 12:18 PM BST

Current weather – Weather history – Daily summaries
Weather forecast

Temperature13.0°C (55.4°F)
Dew point12.0°C (53.6°F)
Winds 1 kts (0.5 m/s, 1.2 mph) Vrb
Winds variableWinds variable
Visibility6.2 mi. (10 km)
Clouds Sky clear
Altimeter29.41 in.Hg (996 mB)
Relative humidity94 %
Density altitude547 ft. (167 m)
Remarks Fully automated report
Corrected report
No clouds detected
No significant changes expected in the next two hours
Flight conditions Visual Meteorological Conditions
Raw dataCOR EGLL 212220Z AUTO VRB01KT 9999 NCD 13/12 Q0996 NOSIG
An error has occurred. This application may no longer respond until reloaded. Reload 🗙